sensor_id;sensor_type;location;lat;lon;timestamp;P1;durP1;ratioP1;P2;durP2;ratioP2
19207;SDS011;9737;59.466;18.036;2022-12-07T00:01:25;19.03;;;7.37;;
19207;SDS011;9737;59.466;18.036;2022-12-07T00:03:55;12.23;;;6.77;;
19207;SDS011;9737;59.466;18.036;2022-12-07T00:06:30;17.13;;;8.07;;
19207;SDS011;9737;59.466;18.036;2022-12-07T00:08:58;14.80;;;7.07;;
19207;SDS011;9737;59.466;18.036;2022-12-07T00:11:26;18.97;;;7.40;;
19207;SDS011;9737;59.466;18.036;2022-12-07T00:13:55;11.63;;;6.80;;
19207;SDS011;9737;59.466;18.036;2022-12-07T00:16:26;21.00;;;7.33;;
19207;SDS011;9737;59.466;18.036;2022-12-07T00:18:57;12.37;;;7.00;;
19207;SDS011;9737;59.466;18.036;2022-12-07T00:21:26;15.13;;;6.77;;
19207;SDS011;9737;59.466;18.036;2022-12-07T00:23:59;19.00;;;7.47;;
19207;SDS011;9737;59.466;18.036;2022-12-07T00:26:29;12.07;;;6.90;;
19207;SDS011;9737;59.466;18.036;2022-12-07T00:28:59;20.13;;;7.50;;
19207;SDS011;9737;59.466;18.036;2022-12-07T00:31:31;14.67;;;7.23;;
19207;SDS011;9737;59.466;18.036;2022-12-07T00:34:05;15.50;;;6.60;;
19207;SDS011;9737;59.466;18.036;2022-12-07T00:36:34;13.53;;;7.57;;
19207;SDS011;9737;59.466;18.036;2022-12-07T00:39:02;12.07;;;7.50;;
19207;SDS011;9737;59.466;18.036;2022-12-07T00:41:30;13.53;;;6.77;;
19207;SDS011;9737;59.466;18.036;2022-12-07T00:43:59;17.13;;;7.43;;
19207;SDS011;9737;59.466;18.036;2022-12-07T00:46:29;10.03;;;6.50;;
19207;SDS011;9737;59.466;18.036;2022-12-07T00:48:59;12.20;;;6.80;;
19207;SDS011;9737;59.466;18.036;2022-12-07T00:51:27;18.87;;;7.47;;
19207;SDS011;9737;59.466;18.036;2022-12-07T00:53:55;23.63;;;7.00;;
19207;SDS011;9737;59.466;18.036;2022-12-07T00:56:24;19.40;;;6.67;;
19207;SDS011;9737;59.466;18.036;2022-12-07T00:58:54;21.73;;;7.50;;
19207;SDS011;9737;59.466;18.036;2022-12-07T01:01:25;15.00;;;6.67;;
19207;SDS011;9737;59.466;18.036;2022-12-07T01:03:56;13.00;;;6.53;;
19207;SDS011;9737;59.466;18.036;2022-12-07T01:06:24;10.67;;;6.40;;
19207;SDS011;9737;59.466;18.036;2022-12-07T01:08:53;11.80;;;6.30;;
19207;SDS011;9737;59.466;18.036;2022-12-07T01:11:22;10.70;;;5.73;;
19207;SDS011;9737;59.466;18.036;2022-12-07T01:13:52;14.97;;;6.80;;
19207;SDS011;9737;59.466;18.036;2022-12-07T01:16:22;16.33;;;6.90;;
19207;SDS011;9737;59.466;18.036;2022-12-07T01:18:53;16.03;;;6.67;;
19207;SDS011;9737;59.466;18.036;2022-12-07T01:21:24;18.97;;;6.27;;
19207;SDS011;9737;59.466;18.036;2022-12-07T01:23:54;16.73;;;6.53;;
19207;SDS011;9737;59.466;18.036;2022-12-07T01:26:24;16.00;;;5.97;;
19207;SDS011;9737;59.466;18.036;2022-12-07T01:28:53;11.83;;;6.37;;
19207;SDS011;9737;59.466;18.036;2022-12-07T01:31:22;18.23;;;6.67;;
19207;SDS011;9737;59.466;18.036;2022-12-07T01:33:53;13.93;;;6.00;;
19207;SDS011;9737;59.466;18.036;2022-12-07T01:36:25;9.80;;;6.27;;
19207;SDS011;9737;59.466;18.036;2022-12-07T01:38:57;12.17;;;6.50;;
19207;SDS011;9737;59.466;18.036;2022-12-07T01:41:27;8.57;;;5.87;;
19207;SDS011;9737;59.466;18.036;2022-12-07T01:44:13;10.33;;;6.37;;
19207;SDS011;9737;59.466;18.036;2022-12-07T01:46:45;10.73;;;5.80;;
19207;SDS011;9737;59.466;18.036;2022-12-07T01:49:16;16.47;;;6.60;;
19207;SDS011;9737;59.466;18.036;2022-12-07T01:51:51;11.40;;;6.67;;
19207;SDS011;9737;59.466;18.036;2022-12-07T01:54:25;14.47;;;6.50;;
19207;SDS011;9737;59.466;18.036;2022-12-07T01:56:54;11.00;;;6.63;;
19207;SDS011;9737;59.466;18.036;2022-12-07T01:59:24;14.60;;;6.43;;
19207;SDS011;9737;59.466;18.036;2022-12-07T02:01:55;13.90;;;6.57;;
19207;SDS011;9737;59.466;18.036;2022-12-07T02:04:23;12.83;;;6.20;;
19207;SDS011;9737;59.466;18.036;2022-12-07T02:06:53;14.97;;;6.43;;
19207;SDS011;9737;59.466;18.036;2022-12-07T02:09:22;12.17;;;6.30;;
19207;SDS011;9737;59.466;18.036;2022-12-07T02:11:50;14.60;;;6.07;;
19207;SDS011;9737;59.466;18.036;2022-12-07T02:14:21;12.67;;;6.33;;
19207;SDS011;9737;59.466;18.036;2022-12-07T02:16:53;11.70;;;6.17;;
19207;SDS011;9737;59.466;18.036;2022-12-07T02:22:54;11.70;;;5.83;;
19207;SDS011;9737;59.466;18.036;2022-12-07T02:25:43;14.17;;;6.80;;
19207;SDS011;9737;59.466;18.036;2022-12-07T02:28:26;12.47;;;6.40;;
19207;SDS011;9737;59.466;18.036;2022-12-07T02:31:01;19.30;;;7.00;;
19207;SDS011;9737;59.466;18.036;2022-12-07T02:33:36;15.37;;;6.73;;
19207;SDS011;9737;59.466;18.036;2022-12-07T02:36:10;15.07;;;6.60;;
19207;SDS011;9737;59.466;18.036;2022-12-07T02:38:45;13.43;;;6.67;;
19207;SDS011;9737;59.466;18.036;2022-12-07T02:41:20;13.90;;;6.30;;
19207;SDS011;9737;59.466;18.036;2022-12-07T02:43:54;13.03;;;6.87;;
19207;SDS011;9737;59.466;18.036;2022-12-07T02:46:25;10.63;;;6.93;;
19207;SDS011;9737;59.466;18.036;2022-12-07T02:48:56;12.83;;;6.27;;
19207;SDS011;9737;59.466;18.036;2022-12-07T02:51:25;13.43;;;6.60;;
19207;SDS011;9737;59.466;18.036;2022-12-07T02:53:57;12.13;;;6.63;;
19207;SDS011;9737;59.466;18.036;2022-12-07T02:56:27;11.03;;;5.63;;
19207;SDS011;9737;59.466;18.036;2022-12-07T02:59:07;10.73;;;5.63;;
19207;SDS011;9737;59.466;18.036;2022-12-07T03:01:48;10.47;;;5.83;;
19207;SDS011;9737;59.466;18.036;2022-12-07T03:04:27;12.17;;;7.03;;
19207;SDS011;9737;59.466;18.036;2022-12-07T03:07:05;10.70;;;6.30;;
19207;SDS011;9737;59.466;18.036;2022-12-07T03:09:41;11.97;;;5.53;;
19207;SDS011;9737;59.466;18.036;2022-12-07T03:12:16;11.37;;;6.00;;
19207;SDS011;9737;59.466;18.036;2022-12-07T03:14:50;12.77;;;6.07;;
19207;SDS011;9737;59.466;18.036;2022-12-07T03:17:26;16.03;;;6.67;;
19207;SDS011;9737;59.466;18.036;2022-12-07T03:20:00;11.23;;;5.43;;
19207;SDS011;9737;59.466;18.036;2022-12-07T03:22:35;15.90;;;6.80;;
19207;SDS011;9737;59.466;18.036;2022-12-07T03:25:11;15.33;;;7.00;;
19207;SDS011;9737;59.466;18.036;2022-12-07T03:27:44;15.23;;;6.50;;
19207;SDS011;9737;59.466;18.036;2022-12-07T03:30:19;11.67;;;5.87;;
19207;SDS011;9737;59.466;18.036;2022-12-07T03:32:52;14.97;;;6.30;;
19207;SDS011;9737;59.466;18.036;2022-12-07T03:35:23;13.00;;;6.90;;
19207;SDS011;9737;59.466;18.036;2022-12-07T03:37:54;14.00;;;6.50;;
19207;SDS011;9737;59.466;18.036;2022-12-07T03:40:26;21.17;;;7.10;;
19207;SDS011;9737;59.466;18.036;2022-12-07T03:42:58;14.83;;;6.17;;
19207;SDS011;9737;59.466;18.036;2022-12-07T03:45:30;13.77;;;6.30;;
19207;SDS011;9737;59.466;18.036;2022-12-07T03:48:07;12.33;;;5.93;;
19207;SDS011;9737;59.466;18.036;2022-12-07T03:50:45;9.53;;;5.60;;
19207;SDS011;9737;59.466;18.036;2022-12-07T03:53:20;17.73;;;6.50;;
19207;SDS011;9737;59.466;18.036;2022-12-07T03:55:55;10.93;;;5.83;;
19207;SDS011;9737;59.466;18.036;2022-12-07T03:58:25;14.23;;;6.43;;
19207;SDS011;9737;59.466;18.036;2022-12-07T04:00:54;11.40;;;6.27;;
19207;SDS011;9737;59.466;18.036;2022-12-07T04:03:25;12.37;;;5.63;;
19207;SDS011;9737;59.466;18.036;2022-12-07T04:05:54;10.77;;;6.00;;
19207;SDS011;9737;59.466;18.036;2022-12-07T04:08:22;11.03;;;5.60;;
19207;SDS011;9737;59.466;18.036;2022-12-07T04:10:50;12.40;;;6.20;;
19207;SDS011;9737;59.466;18.036;2022-12-07T04:13:18;13.13;;;5.80;;
19207;SDS011;9737;59.466;18.036;2022-12-07T04:15:46;12.40;;;6.10;;
19207;SDS011;9737;59.466;18.036;2022-12-07T04:18:14;12.23;;;5.87;;
19207;SDS011;9737;59.466;18.036;2022-12-07T04:20:43;14.30;;;6.30;;
19207;SDS011;9737;59.466;18.036;2022-12-07T04:23:12;15.90;;;6.10;;
19207;SDS011;9737;59.466;18.036;2022-12-07T04:25:40;15.17;;;6.03;;
19207;SDS011;9737;59.466;18.036;2022-12-07T04:28:08;16.50;;;6.57;;
19207;SDS011;9737;59.466;18.036;2022-12-07T04:30:36;11.57;;;5.73;;
19207;SDS011;9737;59.466;18.036;2022-12-07T04:33:04;11.33;;;6.10;;
19207;SDS011;9737;59.466;18.036;2022-12-07T04:35:32;8.63;;;4.97;;
19207;SDS011;9737;59.466;18.036;2022-12-07T04:38:04;11.70;;;5.50;;
19207;SDS011;9737;59.466;18.036;2022-12-07T04:40:32;11.43;;;5.87;;
19207;SDS011;9737;59.466;18.036;2022-12-07T04:43:00;7.70;;;5.37;;
19207;SDS011;9737;59.466;18.036;2022-12-07T04:45:28;17.70;;;6.07;;
19207;SDS011;9737;59.466;18.036;2022-12-07T04:47:55;14.03;;;6.23;;
19207;SDS011;9737;59.466;18.036;2022-12-07T04:50:23;12.93;;;6.07;;
19207;SDS011;9737;59.466;18.036;2022-12-07T04:52:52;13.13;;;6.87;;
19207;SDS011;9737;59.466;18.036;2022-12-07T04:55:22;10.17;;;6.57;;
19207;SDS011;9737;59.466;18.036;2022-12-07T04:57:49;14.37;;;6.33;;
19207;SDS011;9737;59.466;18.036;2022-12-07T05:00:17;11.63;;;6.13;;
19207;SDS011;9737;59.466;18.036;2022-12-07T05:02:46;10.90;;;5.80;;
19207;SDS011;9737;59.466;18.036;2022-12-07T05:05:16;11.73;;;5.73;;
19207;SDS011;9737;59.466;18.036;2022-12-07T05:07:43;16.37;;;6.43;;
19207;SDS011;9737;59.466;18.036;2022-12-07T05:10:11;14.00;;;5.93;;
19207;SDS011;9737;59.466;18.036;2022-12-07T05:12:40;11.93;;;5.80;;
19207;SDS011;9737;59.466;18.036;2022-12-07T05:15:08;9.13;;;5.83;;
19207;SDS011;9737;59.466;18.036;2022-12-07T05:17:37;10.63;;;5.87;;
19207;SDS011;9737;59.466;18.036;2022-12-07T05:20:05;11.27;;;5.60;;
19207;SDS011;9737;59.466;18.036;2022-12-07T05:22:34;17.50;;;6.50;;
19207;SDS011;9737;59.466;18.036;2022-12-07T05:25:04;16.53;;;5.97;;
19207;SDS011;9737;59.466;18.036;2022-12-07T05:27:33;12.23;;;5.93;;
19207;SDS011;9737;59.466;18.036;2022-12-07T05:30:02;11.80;;;6.47;;
19207;SDS011;9737;59.466;18.036;2022-12-07T05:32:31;16.80;;;5.97;;
19207;SDS011;9737;59.466;18.036;2022-12-07T05:34:59;12.53;;;6.40;;
19207;SDS011;9737;59.466;18.036;2022-12-07T05:37:26;16.47;;;6.30;;
19207;SDS011;9737;59.466;18.036;2022-12-07T05:39:54;11.27;;;6.33;;
19207;SDS011;9737;59.466;18.036;2022-12-07T05:42:23;12.27;;;6.20;;
19207;SDS011;9737;59.466;18.036;2022-12-07T05:44:51;14.60;;;5.50;;
19207;SDS011;9737;59.466;18.036;2022-12-07T05:47:21;12.17;;;5.47;;
19207;SDS011;9737;59.466;18.036;2022-12-07T05:49:49;16.90;;;6.17;;
19207;SDS011;9737;59.466;18.036;2022-12-07T05:52:17;10.83;;;5.97;;
19207;SDS011;9737;59.466;18.036;2022-12-07T05:54:45;11.63;;;6.20;;
19207;SDS011;9737;59.466;18.036;2022-12-07T05:57:13;15.47;;;6.23;;
19207;SDS011;9737;59.466;18.036;2022-12-07T05:59:41;14.17;;;6.37;;
19207;SDS011;9737;59.466;18.036;2022-12-07T06:02:09;19.00;;;6.27;;
19207;SDS011;9737;59.466;18.036;2022-12-07T06:04:40;13.70;;;5.97;;
19207;SDS011;9737;59.466;18.036;2022-12-07T06:07:10;12.17;;;6.13;;
19207;SDS011;9737;59.466;18.036;2022-12-07T06:09:39;11.63;;;6.30;;
19207;SDS011;9737;59.466;18.036;2022-12-07T06:12:09;13.17;;;6.53;;
19207;SDS011;9737;59.466;18.036;2022-12-07T06:14:55;12.63;;;6.13;;
19207;SDS011;9737;59.466;18.036;2022-12-07T06:17:23;9.83;;;6.03;;
19207;SDS011;9737;59.466;18.036;2022-12-07T06:19:53;13.00;;;7.23;;
19207;SDS011;9737;59.466;18.036;2022-12-07T06:22:21;16.07;;;7.70;;
19207;SDS011;9737;59.466;18.036;2022-12-07T06:24:49;20.87;;;7.00;;
19207;SDS011;9737;59.466;18.036;2022-12-07T06:27:17;11.53;;;6.93;;
19207;SDS011;9737;59.466;18.036;2022-12-07T06:29:46;17.37;;;6.37;;
19207;SDS011;9737;59.466;18.036;2022-12-07T06:32:14;13.83;;;7.13;;
19207;SDS011;9737;59.466;18.036;2022-12-07T06:34:42;13.73;;;6.37;;
19207;SDS011;9737;59.466;18.036;2022-12-07T06:37:12;17.80;;;6.70;;
19207;SDS011;9737;59.466;18.036;2022-12-07T06:39:40;12.07;;;6.77;;
19207;SDS011;9737;59.466;18.036;2022-12-07T06:42:08;11.63;;;6.07;;
19207;SDS011;9737;59.466;18.036;2022-12-07T06:44:38;11.63;;;6.20;;
19207;SDS011;9737;59.466;18.036;2022-12-07T06:47:06;13.10;;;6.53;;
19207;SDS011;9737;59.466;18.036;2022-12-07T06:49:55;11.87;;;5.50;;
19207;SDS011;9737;59.466;18.036;2022-12-07T06:52:25;12.77;;;5.97;;
19207;SDS011;9737;59.466;18.036;2022-12-07T06:54:53;11.10;;;6.10;;
19207;SDS011;9737;59.466;18.036;2022-12-07T06:57:21;14.43;;;5.93;;
19207;SDS011;9737;59.466;18.036;2022-12-07T06:59:48;15.13;;;7.03;;
19207;SDS011;9737;59.466;18.036;2022-12-07T07:02:16;17.43;;;6.37;;
19207;SDS011;9737;59.466;18.036;2022-12-07T07:04:44;15.03;;;6.10;;
19207;SDS011;9737;59.466;18.036;2022-12-07T07:07:12;22.53;;;5.70;;
19207;SDS011;9737;59.466;18.036;2022-12-07T07:09:42;12.20;;;5.50;;
19207;SDS011;9737;59.466;18.036;2022-12-07T07:12:09;12.63;;;5.57;;
19207;SDS011;9737;59.466;18.036;2022-12-07T07:14:37;16.93;;;5.53;;
19207;SDS011;9737;59.466;18.036;2022-12-07T07:17:05;13.77;;;5.67;;
19207;SDS011;9737;59.466;18.036;2022-12-07T07:19:33;10.13;;;5.10;;
19207;SDS011;9737;59.466;18.036;2022-12-07T07:22:01;16.93;;;5.80;;
19207;SDS011;9737;59.466;18.036;2022-12-07T07:24:29;10.27;;;5.37;;
19207;SDS011;9737;59.466;18.036;2022-12-07T07:26:59;13.80;;;5.60;;
19207;SDS011;9737;59.466;18.036;2022-12-07T07:29:26;14.23;;;6.37;;
19207;SDS011;9737;59.466;18.036;2022-12-07T07:31:54;16.37;;;6.03;;
19207;SDS011;9737;59.466;18.036;2022-12-07T07:34:30;10.87;;;5.90;;
19207;SDS011;9737;59.466;18.036;2022-12-07T07:36:58;11.03;;;6.03;;
19207;SDS011;9737;59.466;18.036;2022-12-07T07:39:25;14.97;;;6.37;;
19207;SDS011;9737;59.466;18.036;2022-12-07T07:41:53;19.80;;;7.33;;
19207;SDS011;9737;59.466;18.036;2022-12-07T07:44:23;16.47;;;6.17;;
19207;SDS011;9737;59.466;18.036;2022-12-07T07:46:59;12.40;;;6.30;;
19207;SDS011;9737;59.466;18.036;2022-12-07T07:49:27;21.17;;;6.20;;
19207;SDS011;9737;59.466;18.036;2022-12-07T07:51:56;20.03;;;6.13;;
19207;SDS011;9737;59.466;18.036;2022-12-07T07:54:24;15.70;;;7.00;;
19207;SDS011;9737;59.466;18.036;2022-12-07T07:56:52;20.67;;;6.13;;
19207;SDS011;9737;59.466;18.036;2022-12-07T07:59:20;11.53;;;6.00;;
19207;SDS011;9737;59.466;18.036;2022-12-07T08:01:52;12.20;;;5.50;;
19207;SDS011;9737;59.466;18.036;2022-12-07T08:04:20;15.07;;;5.63;;
19207;SDS011;9737;59.466;18.036;2022-12-07T08:06:48;14.83;;;5.63;;
19207;SDS011;9737;59.466;18.036;2022-12-07T08:09:16;11.37;;;5.70;;
19207;SDS011;9737;59.466;18.036;2022-12-07T08:11:44;13.33;;;5.50;;
19207;SDS011;9737;59.466;18.036;2022-12-07T08:14:11;15.67;;;5.83;;
19207;SDS011;9737;59.466;18.036;2022-12-07T08:16:39;16.40;;;5.70;;
19207;SDS011;9737;59.466;18.036;2022-12-07T08:19:08;16.17;;;7.80;;
19207;SDS011;9737;59.466;18.036;2022-12-07T08:21:36;16.00;;;6.13;;
19207;SDS011;9737;59.466;18.036;2022-12-07T08:24:05;18.70;;;7.00;;
19207;SDS011;9737;59.466;18.036;2022-12-07T08:26:33;12.50;;;5.70;;
19207;SDS011;9737;59.466;18.036;2022-12-07T08:29:01;15.37;;;5.97;;
19207;SDS011;9737;59.466;18.036;2022-12-07T08:31:29;10.47;;;5.20;;
19207;SDS011;9737;59.466;18.036;2022-12-07T08:33:57;19.17;;;6.13;;
19207;SDS011;9737;59.466;18.036;2022-12-07T08:36:27;14.57;;;5.67;;
19207;SDS011;9737;59.466;18.036;2022-12-07T08:38:55;10.47;;;6.60;;
19207;SDS011;9737;59.466;18.036;2022-12-07T08:41:43;16.63;;;6.60;;
19207;SDS011;9737;59.466;18.036;2022-12-07T08:44:11;17.67;;;6.73;;
19207;SDS011;9737;59.466;18.036;2022-12-07T08:46:40;12.70;;;5.77;;
19207;SDS011;9737;59.466;18.036;2022-12-07T08:49:15;13.40;;;5.37;;
19207;SDS011;9737;59.466;18.036;2022-12-07T08:51:48;16.77;;;6.00;;
19207;SDS011;9737;59.466;18.036;2022-12-07T08:54:18;16.93;;;5.93;;
19207;SDS011;9737;59.466;18.036;2022-12-07T08:56:47;11.83;;;5.57;;
19207;SDS011;9737;59.466;18.036;2022-12-07T08:59:24;15.10;;;5.47;;
19207;SDS011;9737;59.466;18.036;2022-12-07T09:01:54;10.43;;;5.33;;
19207;SDS011;9737;59.466;18.036;2022-12-07T09:04:22;14.17;;;5.57;;
19207;SDS011;9737;59.466;18.036;2022-12-07T09:06:51;22.23;;;5.37;;
19207;SDS011;9737;59.466;18.036;2022-12-07T09:09:20;11.43;;;5.67;;
19207;SDS011;9737;59.466;18.036;2022-12-07T09:11:48;22.67;;;5.53;;
19207;SDS011;9737;59.466;18.036;2022-12-07T09:14:16;20.17;;;5.03;;
19207;SDS011;9737;59.466;18.036;2022-12-07T09:16:45;20.83;;;5.80;;
19207;SDS011;9737;59.466;18.036;2022-12-07T09:19:13;11.30;;;5.77;;
19207;SDS011;9737;59.466;18.036;2022-12-07T09:21:41;13.27;;;5.63;;
19207;SDS011;9737;59.466;18.036;2022-12-07T09:24:11;16.47;;;5.40;;
19207;SDS011;9737;59.466;18.036;2022-12-07T09:26:39;11.03;;;5.23;;
19207;SDS011;9737;59.466;18.036;2022-12-07T09:29:08;12.40;;;5.40;;
19207;SDS011;9737;59.466;18.036;2022-12-07T09:31:36;12.47;;;6.20;;
19207;SDS011;9737;59.466;18.036;2022-12-07T09:34:05;14.70;;;7.50;;
19207;SDS011;9737;59.466;18.036;2022-12-07T09:36:33;13.77;;;6.10;;
19207;SDS011;9737;59.466;18.036;2022-12-07T09:39:01;16.57;;;5.70;;
19207;SDS011;9737;59.466;18.036;2022-12-07T09:41:32;10.67;;;5.63;;
19207;SDS011;9737;59.466;18.036;2022-12-07T09:44:02;8.10;;;4.53;;
19207;SDS011;9737;59.466;18.036;2022-12-07T09:46:33;14.27;;;4.90;;
19207;SDS011;9737;59.466;18.036;2022-12-07T09:49:03;12.53;;;4.73;;
19207;SDS011;9737;59.466;18.036;2022-12-07T09:51:32;8.57;;;4.30;;
19207;SDS011;9737;59.466;18.036;2022-12-07T09:54:00;9.20;;;4.70;;
19207;SDS011;9737;59.466;18.036;2022-12-07T09:56:29;9.10;;;4.37;;
19207;SDS011;9737;59.466;18.036;2022-12-07T09:59:01;7.83;;;4.67;;
19207;SDS011;9737;59.466;18.036;2022-12-07T10:01:30;15.73;;;5.43;;
19207;SDS011;9737;59.466;18.036;2022-12-07T10:04:05;13.23;;;4.83;;
19207;SDS011;9737;59.466;18.036;2022-12-07T10:06:39;9.30;;;4.87;;
19207;SDS011;9737;59.466;18.036;2022-12-07T10:09:09;13.93;;;5.03;;
19207;SDS011;9737;59.466;18.036;2022-12-07T10:14:35;12.20;;;5.63;;
19207;SDS011;9737;59.466;18.036;2022-12-07T10:17:32;9.67;;;5.10;;
19207;SDS011;9737;59.466;18.036;2022-12-07T10:22:55;10.67;;;6.00;;
19207;SDS011;9737;59.466;18.036;2022-12-07T10:25:29;11.57;;;6.20;;
19207;SDS011;9737;59.466;18.036;2022-12-07T10:28:13;10.50;;;5.60;;
19207;SDS011;9737;59.466;18.036;2022-12-07T10:30:48;14.10;;;6.73;;
19207;SDS011;9737;59.466;18.036;2022-12-07T10:33:32;16.77;;;6.60;;
19207;SDS011;9737;59.466;18.036;2022-12-07T10:36:17;14.30;;;6.60;;
19207;SDS011;9737;59.466;18.036;2022-12-07T10:38:49;13.03;;;6.20;;
19207;SDS011;9737;59.466;18.036;2022-12-07T10:41:19;12.73;;;6.73;;
19207;SDS011;9737;59.466;18.036;2022-12-07T10:43:49;10.47;;;6.13;;
19207;SDS011;9737;59.466;18.036;2022-12-07T10:52:28;14.43;;;6.23;;
19207;SDS011;9737;59.466;18.036;2022-12-07T10:55:10;9.10;;;5.07;;
19207;SDS011;9737;59.466;18.036;2022-12-07T10:57:47;10.13;;;4.90;;
19207;SDS011;9737;59.466;18.036;2022-12-07T11:00:28;10.45;;;4.72;;
19207;SDS011;9737;59.466;18.036;2022-12-07T11:03:08;8.93;;;4.45;;
19207;SDS011;9737;59.466;18.036;2022-12-07T11:05:53;13.10;;;4.93;;
19207;SDS011;9737;59.466;18.036;2022-12-07T11:08:33;10.10;;;4.80;;
19207;SDS011;9737;59.466;18.036;2022-12-07T11:11:13;11.20;;;5.45;;
19207;SDS011;9737;59.466;18.036;2022-12-07T11:13:44;9.10;;;4.70;;
19207;SDS011;9737;59.466;18.036;2022-12-07T11:16:21;11.88;;;4.75;;
19207;SDS011;9737;59.466;18.036;2022-12-07T11:18:59;11.05;;;4.72;;
19207;SDS011;9737;59.466;18.036;2022-12-07T11:21:36;10.88;;;4.95;;
19207;SDS011;9737;59.466;18.036;2022-12-07T11:24:14;11.00;;;5.15;;
19207;SDS011;9737;59.466;18.036;2022-12-07T11:27:18;9.88;;;5.38;;
19207;SDS011;9737;59.466;18.036;2022-12-07T11:30:00;20.42;;;5.78;;
19207;SDS011;9737;59.466;18.036;2022-12-07T11:32:44;12.07;;;5.10;;
19207;SDS011;9737;59.466;18.036;2022-12-07T11:35:24;11.80;;;5.32;;
19207;SDS011;9737;59.466;18.036;2022-12-07T11:38:07;8.18;;;4.65;;
19207;SDS011;9737;59.466;18.036;2022-12-07T11:40:38;9.68;;;4.97;;
19207;SDS011;9737;59.466;18.036;2022-12-07T11:43:13;9.57;;;4.30;;
19207;SDS011;9737;59.466;18.036;2022-12-07T11:45:49;6.70;;;4.30;;
19207;SDS011;9737;59.466;18.036;2022-12-07T11:48:24;15.98;;;4.60;;
19207;SDS011;9737;59.466;18.036;2022-12-07T11:51:00;8.95;;;4.57;;
19207;SDS011;9737;59.466;18.036;2022-12-07T11:53:32;16.17;;;4.82;;
19207;SDS011;9737;59.466;18.036;2022-12-07T11:56:03;17.05;;;6.60;;
19207;SDS011;9737;59.466;18.036;2022-12-07T11:58:42;10.70;;;5.15;;
19207;SDS011;9737;59.466;18.036;2022-12-07T12:01:19;13.85;;;5.07;;
19207;SDS011;9737;59.466;18.036;2022-12-07T12:03:58;13.65;;;5.82;;
19207;SDS011;9737;59.466;18.036;2022-12-07T12:06:35;9.82;;;5.47;;
19207;SDS011;9737;59.466;18.036;2022-12-07T12:09:04;13.93;;;5.03;;
19207;SDS011;9737;59.466;18.036;2022-12-07T12:12:11;13.98;;;5.82;;
19207;SDS011;9737;59.466;18.036;2022-12-07T12:15:13;17.35;;;6.68;;
19207;SDS011;9737;59.466;18.036;2022-12-07T12:17:55;15.57;;;6.38;;
19207;SDS011;9737;59.466;18.036;2022-12-07T12:20:43;15.10;;;6.13;;
19207;SDS011;9737;59.466;18.036;2022-12-07T12:23:18;13.82;;;5.97;;
19207;SDS011;9737;59.466;18.036;2022-12-07T12:25:49;14.23;;;7.03;;
19207;SDS011;9737;59.466;18.036;2022-12-07T12:28:22;13.27;;;6.30;;
19207;SDS011;9737;59.466;18.036;2022-12-07T12:31:05;9.65;;;5.53;;
19207;SDS011;9737;59.466;18.036;2022-12-07T12:33:36;8.00;;;4.07;;
19207;SDS011;9737;59.466;18.036;2022-12-07T12:36:25;8.15;;;4.15;;
19207;SDS011;9737;59.466;18.036;2022-12-07T12:39:12;8.57;;;4.35;;
19207;SDS011;9737;59.466;18.036;2022-12-07T12:41:51;10.40;;;4.93;;
19207;SDS011;9737;59.466;18.036;2022-12-07T12:44:39;11.73;;;4.90;;
19207;SDS011;9737;59.466;18.036;2022-12-07T12:50:28;9.27;;;5.07;;
19207;SDS011;9737;59.466;18.036;2022-12-07T12:52:59;10.27;;;4.93;;
19207;SDS011;9737;59.466;18.036;2022-12-07T12:58:37;8.77;;;4.73;;
19207;SDS011;9737;59.466;18.036;2022-12-07T13:04:28;7.37;;;4.27;;
19207;SDS011;9737;59.466;18.036;2022-12-07T13:07:08;10.50;;;5.07;;
19207;SDS011;9737;59.466;18.036;2022-12-07T13:09:39;11.53;;;4.43;;
19207;SDS011;9737;59.466;18.036;2022-12-07T13:12:14;7.80;;;3.90;;
19207;SDS011;9737;59.466;18.036;2022-12-07T13:14:52;7.07;;;4.00;;
19207;SDS011;9737;59.466;18.036;2022-12-07T13:23:18;9.57;;;4.73;;
19207;SDS011;9737;59.466;18.036;2022-12-07T13:25:51;6.83;;;4.23;;
19207;SDS011;9737;59.466;18.036;2022-12-07T13:28:25;6.13;;;4.00;;
19207;SDS011;9737;59.466;18.036;2022-12-07T13:31:01;9.00;;;4.23;;
19207;SDS011;9737;59.466;18.036;2022-12-07T13:33:38;4.47;;;3.50;;
19207;SDS011;9737;59.466;18.036;2022-12-07T13:36:12;10.23;;;4.17;;
19207;SDS011;9737;59.466;18.036;2022-12-07T13:38:50;9.53;;;3.87;;
19207;SDS011;9737;59.466;18.036;2022-12-07T13:41:20;11.87;;;3.77;;
19207;SDS011;9737;59.466;18.036;2022-12-07T13:43:53;12.00;;;4.10;;
19207;SDS011;9737;59.466;18.036;2022-12-07T13:46:31;11.37;;;3.90;;
19207;SDS011;9737;59.466;18.036;2022-12-07T13:49:15;4.60;;;3.57;;
19207;SDS011;9737;59.466;18.036;2022-12-07T13:51:45;7.60;;;3.57;;
19207;SDS011;9737;59.466;18.036;2022-12-07T13:54:13;8.77;;;3.77;;
19207;SDS011;9737;59.466;18.036;2022-12-07T13:56:42;5.20;;;3.60;;
19207;SDS011;9737;59.466;18.036;2022-12-07T13:59:14;8.03;;;3.77;;
19207;SDS011;9737;59.466;18.036;2022-12-07T14:01:46;9.73;;;3.70;;
19207;SDS011;9737;59.466;18.036;2022-12-07T14:04:19;6.90;;;4.33;;
19207;SDS011;9737;59.466;18.036;2022-12-07T14:06:58;6.20;;;4.50;;
19207;SDS011;9737;59.466;18.036;2022-12-07T14:09:27;6.40;;;4.27;;
19207;SDS011;9737;59.466;18.036;2022-12-07T14:11:56;10.47;;;4.33;;
19207;SDS011;9737;59.466;18.036;2022-12-07T14:14:27;10.83;;;5.30;;
19207;SDS011;9737;59.466;18.036;2022-12-07T14:17:09;11.00;;;5.53;;
19207;SDS011;9737;59.466;18.036;2022-12-07T14:19:49;8.33;;;5.73;;
19207;SDS011;9737;59.466;18.036;2022-12-07T14:22:26;10.00;;;6.57;;
19207;SDS011;9737;59.466;18.036;2022-12-07T14:25:15;13.97;;;6.57;;
19207;SDS011;9737;59.466;18.036;2022-12-07T14:27:49;13.90;;;6.43;;
19207;SDS011;9737;59.466;18.036;2022-12-07T14:30:23;15.93;;;7.27;;
19207;SDS011;9737;59.466;18.036;2022-12-07T14:32:54;13.70;;;7.37;;
19207;SDS011;9737;59.466;18.036;2022-12-07T14:35:26;11.63;;;5.70;;
19207;SDS011;9737;59.466;18.036;2022-12-07T14:37:55;16.43;;;8.20;;
19207;SDS011;9737;59.466;18.036;2022-12-07T14:40:24;13.27;;;7.23;;
19207;SDS011;9737;59.466;18.036;2022-12-07T14:42:54;20.83;;;9.37;;
19207;SDS011;9737;59.466;18.036;2022-12-07T14:45:25;29.07;;;11.13;;
19207;SDS011;9737;59.466;18.036;2022-12-07T14:47:54;34.80;;;11.90;;
19207;SDS011;9737;59.466;18.036;2022-12-07T14:50:42;24.90;;;10.20;;
19207;SDS011;9737;59.466;18.036;2022-12-07T14:53:33;21.80;;;8.10;;
19207;SDS011;9737;59.466;18.036;2022-12-07T14:56:04;28.00;;;10.97;;
19207;SDS011;9737;59.466;18.036;2022-12-07T14:58:32;27.20;;;9.17;;
19207;SDS011;9737;59.466;18.036;2022-12-07T15:01:02;14.00;;;7.07;;
19207;SDS011;9737;59.466;18.036;2022-12-07T15:03:29;17.03;;;6.20;;
19207;SDS011;9737;59.466;18.036;2022-12-07T15:05:58;10.27;;;5.43;;
19207;SDS011;9737;59.466;18.036;2022-12-07T15:08:25;9.80;;;5.37;;
19207;SDS011;9737;59.466;18.036;2022-12-07T15:10:53;9.93;;;5.27;;
19207;SDS011;9737;59.466;18.036;2022-12-07T15:13:21;9.20;;;5.07;;
19207;SDS011;9737;59.466;18.036;2022-12-07T15:16:22;9.63;;;5.60;;
19207;SDS011;9737;59.466;18.036;2022-12-07T15:18:50;8.93;;;5.70;;
19207;SDS011;9737;59.466;18.036;2022-12-07T15:21:39;13.00;;;6.27;;
19207;SDS011;9737;59.466;18.036;2022-12-07T15:24:10;18.43;;;11.23;;
19207;SDS011;9737;59.466;18.036;2022-12-07T15:26:40;18.90;;;10.47;;
19207;SDS011;9737;59.466;18.036;2022-12-07T15:29:09;18.97;;;9.83;;
19207;SDS011;9737;59.466;18.036;2022-12-07T15:31:39;17.50;;;8.40;;
19207;SDS011;9737;59.466;18.036;2022-12-07T15:34:22;18.40;;;6.83;;
19207;SDS011;9737;59.466;18.036;2022-12-07T15:36:51;15.53;;;5.93;;